Time;durP1;ratioP1;P1;durP2;ratioP2;P2;SDS_P1;SDS_P2;PMS_P1;PMS_P2;Temp;Humidity;BMP_temperature;BMP_pressure;BME280_temperature;BME280_humidity;BME280_pressure;Samples;Min_cycle;Max_cycle;Signal;HPM_P1;HPM_P2
2023/01/04 00:01:14;;;;;;;0.90;0.90;;;-9.70;99.90;;;;;;5114691;28;20294;-72
2023/01/04 00:03:40;;;;;;;0.90;0.90;;;-9.60;99.90;;;;;;5114301;28;20565;-71
2023/01/04 00:06:08;;;;;;;7.73;3.23;;;-9.50;99.90;;;;;;5114867;28;20202;-71
2023/01/04 00:08:34;;;;;;;1.00;1.00;;;-9.50;99.90;;;;;;5114660;28;20617;-73
2023/01/04 00:11:02;;;;;;;1.00;1.00;;;-9.50;99.90;;;;;;5114900;28;20240;-72
2023/01/04 00:13:30;;;;;;;1.00;1.00;;;-9.40;99.90;;;;;;5096638;28;20200;-72
2023/01/04 00:15:56;;;;;;;0.90;0.90;;;-9.30;99.90;;;;;;5114397;28;20195;-71
2023/01/04 00:18:22;;;;;;;0.90;0.90;;;-9.20;99.90;;;;;;5114219;28;20199;-72
2023/01/04 00:20:48;;;;;;;1.40;1.30;;;-9.20;99.90;;;;;;5114461;28;20199;-72
2023/01/04 00:23:14;;;;;;;1.03;1.03;;;-9.10;99.90;;;;;;5113799;28;20681;-73
2023/01/04 00:25:39;;;;;;;0.90;0.90;;;-9.10;99.90;;;;;;5095893;28;20251;-72
2023/01/04 00:28:06;;;;;;;0.87;0.87;;;-9.00;99.90;;;;;;5114898;28;20726;-72
2023/01/04 00:30:31;;;;;;;1.10;1.10;;;-9.00;99.90;;;;;;5113970;28;20206;-72
2023/01/04 00:32:57;;;;;;;0.90;0.90;;;-8.90;99.90;;;;;;5114008;28;20191;-71
2023/01/04 00:35:23;;;;;;;4.50;2.40;;;-8.80;99.90;;;;;;5113875;28;20192;-72
2023/01/04 00:37:49;;;;;;;1.27;1.23;;;-8.80;99.90;;;;;;5114307;28;20596;-72
2023/01/04 00:40:15;;;;;;;1.27;1.17;;;-8.70;99.90;;;;;;5095839;28;20199;-72
2023/01/04 00:42:41;;;;;;;0.87;0.87;;;-8.70;99.90;;;;;;5127807;27;20206;-72
2023/01/04 00:45:07;;;;;;;0.80;0.80;;;-8.60;99.90;;;;;;5116183;27;20672;-72
2023/01/04 00:47:32;;;;;;;0.90;0.90;;;-8.60;99.90;;;;;;5134606;27;20187;-72
2023/01/04 00:49:58;;;;;;;0.80;0.80;;;-8.50;99.90;;;;;;5134587;27;20191;-71
2023/01/04 00:52:24;;;;;;;1.40;1.30;;;-8.50;99.90;;;;;;5134543;27;20191;-72
2023/01/04 00:54:50;;;;;;;0.90;0.90;;;-8.40;99.90;;;;;;5134623;27;20191;-72
2023/01/04 00:57:16;;;;;;;0.90;0.90;;;-8.40;99.90;;;;;;5127512;27;20191;-71
2023/01/04 00:59:42;;;;;;;0.80;0.80;;;-8.40;99.90;;;;;;5113122;28;20199;-72
2023/01/04 01:02:07;;;;;;;1.00;1.00;;;-8.40;99.90;;;;;;5113842;28;20287;-72
2023/01/04 01:04:34;;;;;;;0.90;0.90;;;-8.40;99.90;;;;;;5113550;28;20215;-73
2023/01/04 01:07:00;;;;;;;1.43;1.33;;;-8.40;99.90;;;;;;5113724;28;20661;-72
2023/01/04 01:09:25;;;;;;;0.90;0.90;;;-8.30;99.90;;;;;;5095483;28;20249;-73
2023/01/04 01:11:53;;;;;;;1.00;1.00;;;-8.20;99.90;;;;;;5113986;28;20195;-72
2023/01/04 01:14:22;;;;;;;0.90;0.90;;;-8.30;99.90;;;;;;5113856;28;20191;-73
2023/01/04 01:16:47;;;;;;;1.00;1.00;;;-8.20;99.90;;;;;;5113853;28;20607;-72
2023/01/04 01:19:13;;;;;;;1.10;1.10;;;-8.20;99.90;;;;;;5113891;28;20183;-72
2023/01/04 01:21:39;;;;;;;0.97;0.97;;;-8.10;99.90;;;;;;5113496;28;20689;-72
2023/01/04 01:24:06;;;;;;;1.00;1.00;;;-8.10;99.90;;;;;;5113792;28;20261;-72
2023/01/04 01:26:32;;;;;;;0.90;0.90;;;-8.20;99.90;;;;;;5113588;28;20180;-74
2023/01/04 01:28:58;;;;;;;0.90;0.90;;;-8.30;99.90;;;;;;5113622;28;20195;-73
2023/01/04 01:31:26;;;;;;;1.10;1.10;;;-8.30;99.90;;;;;;5095095;28;20195;-72
2023/01/04 01:33:54;;;;;;;0.93;0.93;;;-8.30;99.90;;;;;;5113365;28;20278;-72
2023/01/04 01:36:21;;;;;;;0.80;0.80;;;-8.30;99.90;;;;;;5113010;28;20650;-73
2023/01/04 01:38:47;;;;;;;0.90;0.90;;;-8.30;99.90;;;;;;5125456;28;20222;-73
2023/01/04 01:41:19;;;;;;;1.00;1.00;;;-8.30;99.90;;;;;;5133549;28;20183;-73
2023/01/04 01:43:49;;;;;;;0.93;0.93;;;-8.30;99.90;;;;;;5134025;28;20260;-73
2023/01/04 01:46:19;;;;;;;1.00;1.00;;;-8.30;99.90;;;;;;5127382;28;20199;-73
2023/01/04 01:48:45;;;;;;;1.10;1.10;;;-8.40;99.90;;;;;;5113447;28;20187;-72
2023/01/04 01:51:13;;;;;;;1.83;1.67;;;-8.40;99.90;;;;;;5113744;28;20199;-72
2023/01/04 01:53:41;;;;;;;1.00;1.00;;;-8.40;99.90;;;;;;5113275;28;20203;-73
2023/01/04 01:56:08;;;;;;;1.00;1.00;;;-8.40;99.90;;;;;;5113160;28;20187;-72
2023/01/04 01:58:38;;;;;;;1.07;1.07;;;-8.40;99.90;;;;;;5113282;28;20646;-73
2023/01/04 02:01:05;;;;;;;0.90;0.90;;;-8.50;99.90;;;;;;5113529;28;20191;-74
2023/01/04 02:03:41;;;;;;;0.90;0.90;;;-8.50;99.90;;;;;;5103353;22;20220;-74
2023/01/04 02:06:10;;;;;;;0.90;0.90;;;-8.50;99.90;;;;;;5070902;28;20291;-75
2023/01/04 02:08:39;;;;;;;0.80;0.80;;;-8.50;99.90;;;;;;5072664;28;20253;-75
2023/01/04 02:11:05;;;;;;;0.90;0.90;;;-8.50;99.90;;;;;;5072689;28;20193;-75
2023/01/04 02:16:46;;;;;;;0.90;0.90;;;-8.50;99.90;;;;;;5072703;28;20239;-75
2023/01/04 02:19:24;;;;;;;0.90;0.90;;;-8.40;99.90;;;;;;5075375;28;20185;-74
2023/01/04 02:22:27;;;;;;;0.90;0.90;;;-8.40;99.90;;;;;;5058074;28;20258;-75
2023/01/04 02:25:13;;;;;;;0.90;0.90;;;-8.50;99.90;;;;;;5076005;28;20193;-75
2023/01/04 02:28:00;;;;;;;0.90;0.90;;;-8.50;99.90;;;;;;5075400;28;20193;-75
2023/01/04 02:30:43;;;;;;;0.83;0.83;;;-8.50;99.90;;;;;;5076109;28;20716;-75
2023/01/04 02:33:27;;;;;;;1.00;1.00;;;-8.50;99.90;;;;;;5075957;28;20189;-75
2023/01/04 02:36:30;;;;;;;0.90;0.90;;;-8.60;99.90;;;;;;5057944;28;20211;-75
2023/01/04 02:39:02;;;;;;;0.90;0.90;;;-8.50;99.90;;;;;;5075845;28;20670;-75
2023/01/04 02:41:33;;;;;;;0.90;0.90;;;-8.50;99.90;;;;;;5057120;28;20201;-75
2023/01/04 02:50:29;;;;;;;0.90;0.90;;;-8.50;99.90;;;;;;5075886;28;20250;-74
2023/01/04 02:50:31;;;;;;;0.80;0.80;;;-8.50;99.90;;;;;;5075662;28;20295;-75
2023/01/04 02:53:19;;;;;;;0.80;0.80;;;-8.50;99.90;;;;;;5075440;28;20351;-75
2023/01/04 02:55:57;;;;;;;0.90;0.90;;;-8.40;99.90;;;;;;5075656;28;20677;-75
2023/01/04 02:58:35;;;;;;;0.90;0.90;;;-8.40;99.90;;;;;;5075512;28;20537;-75
2023/01/04 03:07:41;;;;;;;0.90;0.90;;;-8.30;99.90;;;;;;5075242;28;20621;-75
2023/01/04 03:10:14;;;;;;;0.80;0.80;;;-8.20;99.90;;;;;;5057379;28;20201;-75
2023/01/04 03:12:51;;;;;;;0.87;0.87;;;-8.30;99.90;;;;;;5075275;28;20725;-75
2023/01/04 03:15:29;;;;;;;0.90;0.90;;;-8.30;99.90;;;;;;5075292;28;20678;-75
2023/01/04 03:18:00;;;;;;;0.90;0.90;;;-8.30;99.90;;;;;;5057232;28;20207;-75
2023/01/04 03:20:31;;;;;;;0.90;0.90;;;-8.30;99.90;;;;;;5075137;28;20258;-75
2023/01/04 03:37:41;;;;;;;0.80;0.80;;;-8.30;99.90;;;;;;5054885;28;20246;-74
2023/01/04 03:49:13;;;;;;;0.80;0.80;;;-8.20;99.90;;;;;;5074782;28;20278;-75
2023/01/04 03:51:41;;;;;;;0.80;0.80;;;-8.10;99.90;;;;;;5056545;28;20203;-75
2023/01/04 03:54:15;;;;;;;1.00;1.00;;;-8.00;99.90;;;;;;5074673;28;20655;-74
2023/01/04 03:56:43;;;;;;;0.80;0.80;;;-8.00;99.90;;;;;;5074515;28;20330;-75
2023/01/04 03:59:11;;;;;;;0.80;0.80;;;-7.90;99.90;;;;;;5056385;28;20193;-74
2023/01/04 04:01:37;;;;;;;0.87;0.87;;;-7.90;99.90;;;;;;5073281;28;20200;-74
2023/01/04 04:09:32;;;;;;;0.90;0.90;;;-7.90;99.90;;;;;;5074140;28;20204;-74
2023/01/04 04:11:58;;;;;;;0.90;0.90;;;-7.90;99.90;;;;;;5056101;28;20702;-74
2023/01/04 04:14:24;;;;;;;0.90;0.90;;;-7.80;99.90;;;;;;5074027;28;20197;-75
2023/01/04 04:16:50;;;;;;;0.87;0.87;;;-7.80;99.90;;;;;;5074155;28;20189;-75
2023/01/04 04:19:15;;;;;;;0.80;0.80;;;-7.80;99.90;;;;;;5073815;28;20213;-75
2023/01/04 04:21:41;;;;;;;1.00;1.00;;;-7.80;99.90;;;;;;5055575;28;20655;-74
2023/01/04 04:24:17;;;;;;;0.90;0.90;;;-7.80;99.90;;;;;;5073613;28;20200;-74
2023/01/04 04:26:43;;;;;;;0.80;0.80;;;-7.80;99.90;;;;;;5055832;28;20203;-75
2023/01/04 04:29:08;;;;;;;1.00;1.00;;;-7.80;99.90;;;;;;5073774;28;20181;-75
2023/01/04 04:31:34;;;;;;;0.93;0.93;;;-7.90;99.90;;;;;;5073343;28;20189;-74
2023/01/04 04:34:00;;;;;;;0.90;0.90;;;-7.90;99.90;;;;;;5073326;28;20204;-75
2023/01/04 04:36:26;;;;;;;0.90;0.90;;;-7.90;99.90;;;;;;5072060;28;20199;-74
2023/01/04 04:38:51;;;;;;;0.90;0.90;;;-8.00;99.90;;;;;;5055097;28;20189;-74
2023/01/04 04:44:01;;;;;;;0.90;0.90;;;-8.00;99.90;;;;;;5053677;28;20288;-75
2023/01/04 04:46:27;;;;;;;1.27;1.20;;;-8.00;99.90;;;;;;5073305;28;20275;-75
2023/01/04 04:48:52;;;;;;;0.83;0.83;;;-8.00;99.90;;;;;;5055993;28;20201;-75
2023/01/04 04:51:18;;;;;;;0.90;0.90;;;-8.00;99.90;;;;;;5073643;28;20200;-74
2023/01/04 04:53:44;;;;;;;0.80;0.80;;;-8.00;99.90;;;;;;5073482;28;20284;-75
2023/01/04 04:56:10;;;;;;;0.80;0.80;;;-8.00;99.90;;;;;;5072374;28;20207;-75
2023/01/04 04:58:37;;;;;;;0.80;0.80;;;-8.00;99.90;;;;;;5073327;28;20197;-75
2023/01/04 05:01:03;;;;;;;0.87;0.87;;;-8.00;99.90;;;;;;5055435;28;20677;-75
2023/01/04 05:03:29;;;;;;;0.90;0.90;;;-8.00;99.90;;;;;;5072566;28;20213;-73
2023/01/04 05:05:55;;;;;;;0.80;0.80;;;-8.00;99.90;;;;;;5073370;28;20246;-74
2023/01/04 05:08:20;;;;;;;0.80;0.80;;;-8.00;99.90;;;;;;5073108;28;20288;-75
2023/01/04 05:10:46;;;;;;;0.97;0.97;;;-8.00;99.90;;;;;;5072924;28;20197;-74
2023/01/04 05:13:12;;;;;;;1.40;1.30;;;-8.00;99.90;;;;;;5073115;28;20682;-75
2023/01/04 05:15:43;;;;;;;0.90;0.90;;;-7.90;99.90;;;;;;5055089;28;20208;-75
2023/01/04 05:18:10;;;;;;;0.90;0.90;;;-7.90;99.90;;;;;;5055275;28;20204;-74
2023/01/04 05:20:36;;;;;;;0.80;0.80;;;-7.80;99.90;;;;;;5073118;28;20264;-74
2023/01/04 05:23:03;;;;;;;0.80;0.80;;;-7.80;99.90;;;;;;5072889;28;20209;-75
2023/01/04 05:25:29;;;;;;;0.80;0.80;;;-7.80;99.90;;;;;;5073080;28;20193;-75
2023/01/04 05:27:54;;;;;;;0.80;0.80;;;-7.80;99.90;;;;;;5073225;28;20208;-75
2023/01/04 05:33:05;;;;;;;0.90;0.90;;;-7.80;99.90;;;;;;5073522;28;20203;-74
2023/01/04 05:35:31;;;;;;;0.80;0.80;;;-7.90;99.90;;;;;;5072942;28;20201;-75
2023/01/04 05:37:57;;;;;;;0.90;0.90;;;-7.90;99.90;;;;;;5054680;28;20206;-75
2023/01/04 05:40:23;;;;;;;0.90;0.90;;;-7.90;99.90;;;;;;5072703;28;20553;-75
2023/01/04 05:42:49;;;;;;;1.67;1.57;;;-7.90;99.90;;;;;;5054849;28;20219;-75
2023/01/04 05:45:16;;;;;;;0.80;0.80;;;-7.90;99.90;;;;;;5055013;28;20201;-75
2023/01/04 05:47:42;;;;;;;1.00;1.00;;;-7.90;99.90;;;;;;5072925;28;20196;-75
2023/01/04 05:50:09;;;;;;;0.80;0.80;;;-7.90;99.90;;;;;;5072923;28;20655;-75
2023/01/04 05:52:35;;;;;;;0.90;0.90;;;-7.80;99.90;;;;;;5073122;28;20208;-75
2023/01/04 05:55:01;;;;;;;1.00;1.00;;;-7.90;99.90;;;;;;5076507;28;20205;-75
2023/01/04 05:57:27;;;;;;;0.90;0.90;;;-7.80;99.90;;;;;;5076208;28;20254;-75
2023/01/04 05:59:53;;;;;;;0.90;0.90;;;-7.80;99.90;;;;;;5058701;28;20211;-75
2023/01/04 06:02:22;;;;;;;0.97;0.97;;;-7.80;99.90;;;;;;5058301;28;20201;-75
2023/01/04 06:04:48;;;;;;;0.87;0.87;;;-7.70;99.90;;;;;;5076327;28;20682;-75
2023/01/04 06:07:15;;;;;;;0.90;0.90;;;-7.70;99.90;;;;;;5076641;28;20196;-75
2023/01/04 06:09:40;;;;;;;0.90;0.90;;;-7.70;99.90;;;;;;5058401;28;20756;-75
2023/01/04 06:12:06;;;;;;;0.90;0.90;;;-7.60;99.90;;;;;;5076595;28;20201;-75
2023/01/04 06:14:32;;;;;;;0.90;0.90;;;-7.70;99.90;;;;;;5076290;28;20204;-75
2023/01/04 06:16:58;;;;;;;0.90;0.90;;;-7.60;99.90;;;;;;5076521;28;20270;-75
2023/01/04 06:19:24;;;;;;;0.90;0.90;;;-7.70;99.90;;;;;;5058063;28;20284;-75
2023/01/04 06:21:50;;;;;;;0.80;0.80;;;-7.70;99.90;;;;;;5076224;28;20209;-75
2023/01/04 06:24:16;;;;;;;0.90;0.90;;;-7.60;99.90;;;;;;5076317;28;20643;-75
2023/01/04 06:26:42;;;;;;;0.93;0.93;;;-7.60;99.90;;;;;;5075901;28;20567;-76
2023/01/04 06:29:07;;;;;;;0.80;0.80;;;-7.50;99.90;;;;;;5076206;28;20189;-75
2023/01/04 06:31:33;;;;;;;0.83;0.83;;;-7.60;99.90;;;;;;5075825;28;20193;-75
2023/01/04 06:33:59;;;;;;;3.23;2.40;;;-7.50;99.90;;;;;;5075489;28;20184;-74
2023/01/04 06:36:25;;;;;;;0.80;0.80;;;-7.50;99.90;;;;;;5075873;28;20239;-74
2023/01/04 06:38:52;;;;;;;0.80;0.80;;;-7.40;99.90;;;;;;5067227;28;20658;-75
2023/01/04 06:41:17;;;;;;;0.90;0.90;;;-7.40;99.90;;;;;;5076082;28;20192;-74
2023/01/04 06:43:43;;;;;;;0.90;0.90;;;-7.40;99.90;;;;;;5075807;28;20215;-74
2023/01/04 06:46:09;;;;;;;0.90;0.90;;;-7.40;99.90;;;;;;5076058;28;20272;-75
2023/01/04 06:48:35;;;;;;;0.90;0.90;;;-7.40;99.90;;;;;;5057728;28;20261;-74
2023/01/04 06:51:01;;;;;;;0.90;0.90;;;-7.40;99.90;;;;;;5075926;28;20560;-75
2023/01/04 06:53:26;;;;;;;1.70;1.60;;;-7.40;99.90;;;;;;5075369;28;20201;-75
2023/01/04 06:55:52;;;;;;;0.90;0.90;;;-7.40;99.90;;;;;;5057746;28;20277;-75
2023/01/04 06:58:18;;;;;;;0.90;0.90;;;-7.30;99.90;;;;;;5057618;28;20247;-75
2023/01/04 07:00:45;;;;;;;1.00;1.00;;;-7.30;99.90;;;;;;5075343;28;20189;-76
2023/01/04 07:03:10;;;;;;;0.90;0.90;;;-7.30;99.90;;;;;;5075202;28;20205;-74
2023/01/04 07:05:36;;;;;;;1.77;1.67;;;-7.20;99.90;;;;;;5074594;28;20252;-74
2023/01/04 07:08:02;;;;;;;1.00;1.00;;;-7.20;99.90;;;;;;5075355;28;20224;-75
2023/01/04 07:10:28;;;;;;;1.40;1.30;;;-7.10;99.90;;;;;;5074840;28;20200;-75
2023/01/04 07:12:54;;;;;;;1.30;1.20;;;-7.10;99.90;;;;;;5075164;28;20568;-73
2023/01/04 07:15:20;;;;;;;1.80;1.70;;;-7.10;99.90;;;;;;5075089;28;20201;-75
2023/01/04 07:17:49;;;;;;;1.50;1.37;;;-7.10;99.90;;;;;;5075002;28;20208;-75
2023/01/04 07:20:16;;;;;;;0.90;0.90;;;-7.00;99.90;;;;;;5075240;28;20197;-75
2023/01/04 07:22:42;;;;;;;1.00;1.00;;;-7.00;99.90;;;;;;5074820;28;20686;-75
2023/01/04 07:25:08;;;;;;;1.87;1.77;;;-7.00;99.90;;;;;;5073893;28;20193;-75
2023/01/04 07:27:33;;;;;;;0.80;0.80;;;-7.00;99.90;;;;;;5074958;28;20229;-72
2023/01/04 07:29:59;;;;;;;0.80;0.80;;;-7.00;99.90;;;;;;5075048;28;20271;-74
2023/01/04 07:32:25;;;;;;;1.10;1.10;;;-7.00;99.90;;;;;;5074696;28;20205;-75
2023/01/04 07:34:51;;;;;;;1.47;1.37;;;-6.90;99.90;;;;;;5074934;28;20200;-74
2023/01/04 07:37:17;;;;;;;0.80;0.80;;;-7.00;99.90;;;;;;5074028;28;20197;-74
2023/01/04 07:39:43;;;;;;;1.00;1.00;;;-7.00;99.90;;;;;;5054711;28;20193;-75
2023/01/04 07:42:11;;;;;;;1.00;1.00;;;-7.00;99.90;;;;;;5054609;28;20206;-75
2023/01/04 07:44:37;;;;;;;1.40;1.30;;;-7.00;99.90;;;;;;5053476;28;20251;-75
2023/01/04 07:47:03;;;;;;;1.93;1.83;;;-6.90;99.90;;;;;;5054812;28;20185;-72
2023/01/04 07:49:29;;;;;;;1.00;1.00;;;-6.90;99.90;;;;;;5053891;28;20194;-75
2023/01/04 07:51:55;;;;;;;1.00;1.00;;;-6.80;99.90;;;;;;5054682;28;20229;-75
2023/01/04 07:54:23;;;;;;;1.30;1.20;;;-6.60;99.90;;;;;;5054447;28;20268;-75
2023/01/04 07:56:49;;;;;;;0.90;0.90;;;-6.50;99.90;;;;;;5054606;28;20205;-75
2023/01/04 07:59:19;;;;;;;0.90;0.90;;;-6.40;99.90;;;;;;5054406;28;20596;-75
2023/01/04 08:01:46;;;;;;;4.63;2.03;;;-6.20;99.90;;;;;;5054363;28;20221;-75
2023/01/04 08:04:13;;;;;;;0.80;0.80;;;-6.10;99.90;;;;;;5054059;28;20229;-75
2023/01/04 08:06:39;;;;;;;0.80;0.80;;;-6.00;99.90;;;;;;5053126;28;20201;-76
2023/01/04 08:09:06;;;;;;;0.87;0.87;;;-5.90;99.90;;;;;;5054475;28;20204;-75
2023/01/04 08:11:33;;;;;;;0.83;0.83;;;-5.80;99.90;;;;;;5054240;28;20190;-79
2023/01/04 08:13:58;;;;;;;0.90;0.90;;;-5.80;99.90;;;;;;5072677;28;20219;-78
2023/01/04 08:16:31;;;;;;;0.90;0.90;;;-5.60;99.90;;;;;;5055390;28;20287;-77
2023/01/04 08:19:03;;;;;;;0.80;0.80;;;-5.60;99.90;;;;;;5074331;28;20196;-77
2023/01/04 08:21:29;;;;;;;0.90;0.90;;;-5.60;99.90;;;;;;5056290;28;20240;-76
2023/01/04 08:23:55;;;;;;;0.87;0.87;;;-5.50;99.90;;;;;;5073861;28;20650;-76
2023/01/04 08:26:22;;;;;;;0.90;0.90;;;-5.50;99.90;;;;;;5073804;28;20280;-77
2023/01/04 08:28:50;;;;;;;0.90;0.90;;;-5.40;99.90;;;;;;5073622;28;20564;-76
2023/01/04 08:31:21;;;;;;;0.87;0.87;;;-5.40;99.90;;;;;;5073909;28;20207;-76
2023/01/04 08:33:47;;;;;;;0.80;0.80;;;-5.30;99.90;;;;;;5073871;28;20207;-75
2023/01/04 08:36:25;;;;;;;0.83;0.83;;;-5.20;99.90;;;;;;5073479;28;20205;-75
2023/01/04 08:38:53;;;;;;;0.93;0.93;;;-5.10;99.90;;;;;;5072702;28;20201;-74
2023/01/04 08:41:19;;;;;;;0.87;0.87;;;-5.10;99.90;;;;;;5073736;28;20204;-75
2023/01/04 08:43:45;;;;;;;0.90;0.90;;;-5.10;99.90;;;;;;5073560;28;20258;-74
2023/01/04 08:46:12;;;;;;;0.90;0.90;;;-5.00;99.90;;;;;;5073692;28;20198;-74
2023/01/04 08:48:39;;;;;;;0.85;0.85;;;-4.90;99.90;;;;;;5072047;28;20201;-75
2023/01/04 08:51:07;;;;;;;0.80;0.80;;;-4.90;99.90;;;;;;5073606;28;20189;-75
2023/01/04 08:53:34;;;;;;;0.70;0.70;;;-4.80;99.90;;;;;;5072077;28;20571;-74
2023/01/04 08:56:00;;;;;;;0.70;0.70;;;-4.80;99.90;;;;;;5073569;28;20200;-74
2023/01/04 08:58:31;;;;;;;0.70;0.70;;;-4.80;99.90;;;;;;5071945;28;20209;-74
2023/01/04 09:01:05;;;;;;;0.90;0.90;;;-4.80;99.90;;;;;;5072073;28;20197;-74
2023/01/04 09:03:31;;;;;;;0.80;0.80;;;-4.70;99.90;;;;;;5073041;28;20214;-74
2023/01/04 09:06:17;;;;;;;0.80;0.80;;;-4.70;99.90;;;;;;5072157;28;20235;-74
2023/01/04 09:08:43;;;;;;;0.80;0.80;;;-4.60;99.90;;;;;;5071856;28;20283;-74
2023/01/04 09:11:13;;;;;;;0.80;0.80;;;-4.60;99.90;;;;;;5073353;28;20572;-75
2023/01/04 09:13:40;;;;;;;0.90;0.90;;;-4.60;99.90;;;;;;5073148;28;20201;-74
2023/01/04 09:16:09;;;;;;;1.17;1.07;;;-4.60;99.90;;;;;;5073266;28;20204;-74
2023/01/04 09:18:35;;;;;;;0.80;0.80;;;-4.50;99.90;;;;;;5073238;28;20220;-74
2023/01/04 09:21:06;;;;;;;0.80;0.80;;;-4.50;99.90;;;;;;5073254;28;20670;-74
2023/01/04 09:23:32;;;;;;;0.90;0.90;;;-4.50;99.90;;;;;;5073050;28;20239;-75
2023/01/04 09:25:59;;;;;;;0.90;0.90;;;-4.50;99.90;;;;;;5073181;28;20540;-74
2023/01/04 09:28:26;;;;;;;1.00;1.00;;;-4.50;99.90;;;;;;5058191;28;20250;-74
2023/01/04 09:30:51;;;;;;;0.80;0.80;;;-4.50;99.90;;;;;;5076802;28;20197;-74
2023/01/04 09:33:17;;;;;;;0.87;0.87;;;-4.40;99.90;;;;;;5059371;28;20639;-74
2023/01/04 09:35:43;;;;;;;0.90;0.90;;;-4.40;99.90;;;;;;5077068;28;20189;-75
2023/01/04 09:38:09;;;;;;;0.90;0.90;;;-4.30;99.90;;;;;;5058946;28;20550;-76
2023/01/04 09:40:57;;;;;;;0.80;0.80;;;-4.30;99.90;;;;;;5077130;28;20192;-75
2023/01/04 09:43:24;;;;;;;0.90;0.90;;;-4.30;99.90;;;;;;5076949;28;20224;-75
2023/01/04 09:45:53;;;;;;;0.83;0.83;;;-4.30;99.90;;;;;;5075814;28;20220;-75
2023/01/04 09:48:23;;;;;;;0.70;0.70;;;-4.30;99.90;;;;;;5075535;28;20222;-76
2023/01/04 09:51:00;;;;;;;0.70;0.70;;;-4.30;99.90;;;;;;5076794;28;20295;-74
2023/01/04 09:53:41;;;;;;;0.80;0.80;;;-4.20;99.90;;;;;;5075145;28;20725;-75
2023/01/04 09:56:19;;;;;;;0.80;0.80;;;-4.20;99.90;;;;;;5059226;28;20197;-76
2023/01/04 09:58:46;;;;;;;0.90;0.90;;;-4.20;99.90;;;;;;5059052;28;20200;-75
2023/01/04 10:01:45;;;;;;;0.90;0.90;;;-4.20;99.90;;;;;;5076860;28;20192;-74
2023/01/04 10:04:43;;;;;;;0.82;0.82;;;-4.10;99.90;;;;;;5076374;28;20228;-75
2023/01/04 10:07:26;;;;;;;0.80;0.80;;;-4.10;99.90;;;;;;5056685;28;20225;-75
2023/01/04 10:09:51;;;;;;;0.80;0.80;;;-4.10;99.90;;;;;;5056439;28;20280;-75
2023/01/04 10:12:42;;;;;;;0.90;0.90;;;-4.10;99.90;;;;;;5065694;28;20300;-76
2023/01/04 10:15:17;;;;;;;0.80;0.80;;;-4.10;99.90;;;;;;5057939;28;20205;-76
2023/01/04 10:18:10;;;;;;;0.90;0.90;;;-4.10;99.90;;;;;;5075629;28;20277;-76
2023/01/04 10:20:45;;;;;;;1.07;1.07;;;-4.10;99.90;;;;;;5076072;28;20207;-77
2023/01/04 10:23:10;;;;;;;0.80;0.80;;;-4.10;99.90;;;;;;5058428;28;20219;-76
2023/01/04 10:25:57;;;;;;;0.77;0.77;;;-4.00;99.90;;;;;;5075479;28;20181;-77
2023/01/04 10:28:38;;;;;;;1.20;1.05;;;-4.00;99.90;;;;;;5076047;28;20184;-77
2023/01/04 10:31:08;;;;;;;0.63;0.63;;;-3.90;99.90;;;;;;5058279;28;20192;-77
2023/01/04 10:33:47;;;;;;;0.80;0.80;;;-3.90;99.90;;;;;;5058149;28;20559;-76
2023/01/04 10:36:21;;;;;;;0.80;0.80;;;-3.90;99.90;;;;;;5076208;28;20185;-75
2023/01/04 10:38:59;;;;;;;0.80;0.80;;;-3.90;99.90;;;;;;5075333;28;20231;-76
2023/01/04 10:41:27;;;;;;;0.80;0.80;;;-3.80;99.90;;;;;;5075810;28;20257;-78
2023/01/04 10:44:02;;;;;;;0.80;0.80;;;-3.80;99.90;;;;;;5075907;28;20212;-76
2023/01/04 10:47:04;;;;;;;1.30;1.20;;;-3.80;99.90;;;;;;5057401;28;20196;-75
2023/01/04 10:49:41;;;;;;;0.70;0.70;;;-3.70;99.90;;;;;;5072025;28;20880;-77
2023/01/04 10:52:20;;;;;;;0.80;0.80;;;-3.80;99.90;;;;;;5075890;28;20220;-77
2023/01/04 10:54:54;;;;;;;0.80;0.80;;;-3.80;99.90;;;;;;5075291;28;20620;-77
2023/01/04 10:57:42;;;;;;;0.90;0.90;;;-3.70;99.90;;;;;;5075346;28;20204;-75
2023/01/04 11:00:21;;;;;;;0.90;0.90;;;-3.70;99.90;;;;;;5074088;28;20193;-75
2023/01/04 11:03:15;;;;;;;0.90;0.90;;;-3.70;99.90;;;;;;5075266;28;20216;-75
2023/01/04 11:05:49;;;;;;;0.80;0.80;;;-3.70;99.90;;;;;;5075070;28;20690;-75
2023/01/04 11:08:35;;;;;;;0.80;0.80;;;-3.70;99.90;;;;;;5075531;28;20207;-75
2023/01/04 11:11:08;;;;;;;0.90;0.90;;;-3.70;99.90;;;;;;5075543;28;20191;-76
2023/01/04 11:13:34;;;;;;;0.90;0.90;;;-3.70;99.90;;;;;;5073953;28;20568;-75
2023/01/04 11:16:03;;;;;;;1.00;1.00;;;-3.70;99.90;;;;;;5075310;28;20196;-75
2023/01/04 11:18:31;;;;;;;0.88;0.88;;;-3.80;99.90;;;;;;5057324;28;20734;-76
2023/01/04 11:21:00;;;;;;;0.80;0.80;;;-3.70;99.90;;;;;;5057073;28;20693;-75
2023/01/04 11:23:26;;;;;;;0.83;0.83;;;-3.70;99.90;;;;;;5075070;28;20696;-78
2023/01/04 11:25:56;;;;;;;0.88;0.88;;;-3.80;99.90;;;;;;5075021;28;20193;-77
2023/01/04 11:28:28;;;;;;;0.90;0.90;;;-3.80;99.90;;;;;;5074811;28;20189;-77
2023/01/04 11:31:09;;;;;;;0.70;0.70;;;-3.90;99.90;;;;;;5075027;28;20193;-76
2023/01/04 11:33:52;;;;;;;0.80;0.80;;;-4.00;99.90;;;;;;5056645;28;20679;-75
2023/01/04 11:36:39;;;;;;;0.70;0.70;;;-4.00;99.90;;;;;;5074852;28;20268;-76
2023/01/04 11:39:16;;;;;;;0.80;0.80;;;-4.00;99.90;;;;;;5056544;28;20193;-76
2023/01/04 11:42:03;;;;;;;1.67;1.57;;;-4.10;99.90;;;;;;5074547;28;20271;-76
2023/01/04 11:44:33;;;;;;;0.90;0.90;;;-4.00;99.90;;;;;;5073335;28;20763;-77
2023/01/04 11:47:19;;;;;;;0.80;0.80;;;-4.10;99.90;;;;;;5073385;28;20239;-75
2023/01/04 11:49:46;;;;;;;0.80;0.80;;;-4.00;99.90;;;;;;5074492;28;20275;-75
2023/01/04 11:52:33;;;;;;;0.70;0.70;;;-4.00;99.90;;;;;;5074024;28;20559;-74
2023/01/04 11:55:27;;;;;;;0.83;0.83;;;-4.10;99.90;;;;;;5074625;28;20699;-77
2023/01/04 11:58:26;;;;;;;0.80;0.80;;;-4.10;99.90;;;;;;5072985;28;20193;-76
2023/01/04 12:00:56;;;;;;;0.90;0.90;;;-4.10;99.90;;;;;;5059542;28;20741;-75
2023/01/04 12:03:39;;;;;;;0.80;0.80;;;-4.20;99.90;;;;;;5056145;28;20204;-75
2023/01/04 12:06:28;;;;;;;0.73;0.73;;;-4.30;99.90;;;;;;5054368;28;20202;-75
2023/01/04 12:08:53;;;;;;;0.77;0.77;;;-4.30;99.90;;;;;;5053151;28;20250;-76
2023/01/04 12:11:28;;;;;;;1.00;1.00;;;-4.30;99.90;;;;;;5052940;28;20664;-75
2023/01/04 12:13:53;;;;;;;0.80;0.80;;;-4.30;99.90;;;;;;5074123;28;20189;-75
2023/01/04 12:16:39;;;;;;;0.80;0.80;;;-4.30;99.90;;;;;;5073771;28;20546;-76
2023/01/04 12:19:05;;;;;;;0.90;0.90;;;-4.30;99.90;;;;;;5073521;28;20212;-76
2023/01/04 12:21:33;;;;;;;0.90;0.90;;;-4.30;99.90;;;;;;5073653;28;20192;-76
2023/01/04 12:23:59;;;;;;;0.87;0.87;;;-4.30;99.90;;;;;;5074038;28;20288;-75
2023/01/04 12:26:25;;;;;;;1.00;0.97;;;-4.30;99.90;;;;;;5074296;28;20555;-75
2023/01/04 12:29:22;;;;;;;1.15;1.08;;;-4.30;99.90;;;;;;5074179;28;20243;-75
2023/01/04 12:32:00;;;;;;;0.80;0.80;;;-4.30;99.90;;;;;;5073954;28;20193;-74
2023/01/04 12:34:27;;;;;;;0.90;0.90;;;-4.30;99.90;;;;;;5074437;28;20334;-75
2023/01/04 12:36:54;;;;;;;0.70;0.70;;;-4.40;99.90;;;;;;5073784;28;20185;-75
2023/01/04 12:39:21;;;;;;;0.80;0.80;;;-4.40;99.90;;;;;;5073528;28;20203;-75
2023/01/04 12:41:59;;;;;;;0.80;0.80;;;-4.40;99.90;;;;;;5073563;28;20276;-75
2023/01/04 12:44:41;;;;;;;0.90;0.90;;;-4.30;99.90;;;;;;5073732;28;20633;-75
2023/01/04 12:50:10;;;;;;;0.80;0.80;;;-4.30;99.90;;;;;;5073972;28;20218;-75
2023/01/04 12:52:43;;;;;;;0.90;0.90;;;-4.30;99.90;;;;;;5073637;28;20200;-75
2023/01/04 12:55:26;;;;;;;0.97;0.97;;;-4.30;99.90;;;;;;5055765;28;20215;-74
2023/01/04 12:57:52;;;;;;;0.90;0.90;;;-4.30;99.90;;;;;;5073956;28;20189;-74
2023/01/04 13:00:18;;;;;;;0.80;0.80;;;-4.30;99.90;;;;;;5055615;28;20232;-75
2023/01/04 13:03:13;;;;;;;0.90;0.90;;;-4.30;99.90;;;;;;5071762;28;20205;-76
2023/01/04 13:05:41;;;;;;;0.80;0.80;;;-4.30;99.90;;;;;;5091312;28;20693;-75
2023/01/04 13:08:11;;;;;;;0.80;0.80;;;-4.20;99.90;;;;;;5090544;28;20192;-75
2023/01/04 13:10:47;;;;;;;0.90;0.90;;;-4.20;99.90;;;;;;5073475;28;20193;-76
2023/01/04 13:13:47;;;;;;;0.80;0.80;;;-4.20;99.90;;;;;;5073798;28;20242;-75
2023/01/04 13:16:29;;;;;;;0.80;0.80;;;-4.20;99.90;;;;;;5039156;28;20209;-76
2023/01/04 13:19:00;;;;;;;0.80;0.80;;;-4.20;99.90;;;;;;5073823;28;20215;-76
2023/01/04 13:21:37;;;;;;;0.90;0.90;;;-4.10;99.90;;;;;;5073581;28;20587;-76
2023/01/04 13:24:26;;;;;;;0.90;0.90;;;-4.20;99.90;;;;;;5055589;28;20240;-75
2023/01/04 13:26:53;;;;;;;1.47;1.37;;;-4.20;99.90;;;;;;5073406;28;20188;-76
2023/01/04 13:29:28;;;;;;;0.80;0.80;;;-4.20;99.90;;;;;;5073558;28;20204;-76
2023/01/04 13:32:10;;;;;;;0.80;0.80;;;-4.20;99.90;;;;;;5055583;28;20674;-76
2023/01/04 13:35:04;;;;;;;0.90;0.90;;;-4.10;99.90;;;;;;5073115;28;20595;-75
2023/01/04 13:37:46;;;;;;;0.80;0.80;;;-4.10;99.90;;;;;;5069794;28;20205;-75
2023/01/04 13:40:29;;;;;;;0.80;0.80;;;-4.10;99.90;;;;;;5073385;28;20189;-75
2023/01/04 13:43:25;;;;;;;0.80;0.80;;;-4.10;99.90;;;;;;5073242;28;20206;-75
2023/01/04 13:46:14;;;;;;;1.10;1.10;;;-4.10;99.90;;;;;;5072467;28;20196;-75
2023/01/04 13:48:43;;;;;;;0.90;0.90;;;-4.10;99.90;;;;;;5072980;28;20218;-74
2023/01/04 13:51:41;;;;;;;0.80;0.80;;;-4.10;99.90;;;;;;5054604;28;20201;-75
2023/01/04 13:54:25;;;;;;;0.70;0.70;;;-4.10;99.90;;;;;;5039473;28;20189;-75
2023/01/04 13:56:53;;;;;;;0.80;0.80;;;-4.10;99.90;;;;;;5061955;28;20227;-75
2023/01/04 13:59:19;;;;;;;0.80;0.80;;;-4.00;99.90;;;;;;5093196;28;20180;-75